Terminal Aerodrome Forecast
Issued by NWS

Home | Current Version | Previous Version | Text Only | Print | Product List | Glossary On
Versions: 1 2 3 4 5 6 7 8 9 10 11 12 13 14 15
000
FTUS46 KSTO 211738
TAFSAC
TAF
KSAC 211738Z 2118/2218 VRB04KT P6SM BKN007 OVC100
      TEMPO 2118/2119 SCT008 BKN100
     FM211900 VRB03KT P6SM BKN100
     FM220600 VRB03KT P6SM SCT250
      TEMPO 2208/2212 4SM BR
     FM221200 VRB03KT 2SM BR SCT250
      TEMPO 2214/2218 1/4SM FG OVC001=

USA.gov is the U.S. government's official web portal to all federal, state and local government web resources and services.